sensor_id;sensor_type;location;lat;lon;timestamp;P1;durP1;ratioP1;P2;durP2;ratioP2
16662;SDS011;8445;51.270;9.434;2024-02-21T00:01:07;12.73;;;8.27;;
16662;SDS011;8445;51.270;9.434;2024-02-21T00:03:33;13.67;;;7.67;;
16662;SDS011;8445;51.270;9.434;2024-02-21T00:05:59;10.10;;;8.00;;
16662;SDS011;8445;51.270;9.434;2024-02-21T00:08:25;9.40;;;8.50;;
16662;SDS011;8445;51.270;9.434;2024-02-21T00:10:51;8.57;;;7.77;;
16662;SDS011;8445;51.270;9.434;2024-02-21T00:13:17;11.93;;;7.67;;
16662;SDS011;8445;51.270;9.434;2024-02-21T00:15:43;8.87;;;7.83;;
16662;SDS011;8445;51.270;9.434;2024-02-21T00:18:09;8.57;;;7.77;;
16662;SDS011;8445;51.270;9.434;2024-02-21T00:20:36;10.63;;;7.80;;
16662;SDS011;8445;51.270;9.434;2024-02-21T00:23:02;16.97;;;8.37;;
16662;SDS011;8445;51.270;9.434;2024-02-21T00:25:28;7.90;;;7.30;;
16662;SDS011;8445;51.270;9.434;2024-02-21T00:27:54;13.10;;;6.97;;
16662;SDS011;8445;51.270;9.434;2024-02-21T00:30:20;8.80;;;7.63;;
16662;SDS011;8445;51.270;9.434;2024-02-21T00:32:46;11.47;;;7.77;;
16662;SDS011;8445;51.270;9.434;2024-02-21T00:35:13;9.67;;;7.10;;
16662;SDS011;8445;51.270;9.434;2024-02-21T00:37:39;10.33;;;7.53;;
16662;SDS011;8445;51.270;9.434;2024-02-21T00:40:05;8.13;;;7.53;;
16662;SDS011;8445;51.270;9.434;2024-02-21T00:42:32;10.43;;;7.33;;
16662;SDS011;8445;51.270;9.434;2024-02-21T00:44:58;9.43;;;7.63;;
16662;SDS011;8445;51.270;9.434;2024-02-21T00:47:24;14.17;;;7.30;;
16662;SDS011;8445;51.270;9.434;2024-02-21T00:49:50;11.03;;;6.97;;
16662;SDS011;8445;51.270;9.434;2024-02-21T00:52:15;9.37;;;7.93;;
16662;SDS011;8445;51.270;9.434;2024-02-21T00:54:41;12.47;;;7.43;;
16662;SDS011;8445;51.270;9.434;2024-02-21T00:57:07;10.70;;;7.27;;
16662;SDS011;8445;51.270;9.434;2024-02-21T00:59:33;14.43;;;7.23;;
16662;SDS011;8445;51.270;9.434;2024-02-21T01:01:59;13.23;;;7.33;;
16662;SDS011;8445;51.270;9.434;2024-02-21T01:04:25;7.90;;;7.10;;
16662;SDS011;8445;51.270;9.434;2024-02-21T01:06:51;11.77;;;6.77;;
16662;SDS011;8445;51.270;9.434;2024-02-21T01:09:17;16.67;;;8.93;;
16662;SDS011;8445;51.270;9.434;2024-02-21T01:11:43;12.20;;;7.10;;
16662;SDS011;8445;51.270;9.434;2024-02-21T01:14:08;8.63;;;7.40;;
16662;SDS011;8445;51.270;9.434;2024-02-21T01:16:36;12.23;;;7.87;;
16662;SDS011;8445;51.270;9.434;2024-02-21T01:19:02;11.13;;;8.10;;
16662;SDS011;8445;51.270;9.434;2024-02-21T01:21:27;16.50;;;8.93;;
16662;SDS011;8445;51.270;9.434;2024-02-21T01:23:54;9.70;;;8.67;;
16662;SDS011;8445;51.270;9.434;2024-02-21T01:26:19;12.97;;;9.10;;
16662;SDS011;8445;51.270;9.434;2024-02-21T01:28:45;10.10;;;8.30;;
16662;SDS011;8445;51.270;9.434;2024-02-21T01:31:11;10.70;;;7.67;;
16662;SDS011;8445;51.270;9.434;2024-02-21T01:33:38;12.93;;;9.10;;
16662;SDS011;8445;51.270;9.434;2024-02-21T01:36:04;8.67;;;7.57;;
16662;SDS011;8445;51.270;9.434;2024-02-21T01:38:33;9.47;;;7.97;;
16662;SDS011;8445;51.270;9.434;2024-02-21T01:40:59;10.30;;;8.37;;
16662;SDS011;8445;51.270;9.434;2024-02-21T01:43:25;16.03;;;8.80;;
16662;SDS011;8445;51.270;9.434;2024-02-21T01:45:52;15.50;;;9.03;;
16662;SDS011;8445;51.270;9.434;2024-02-21T01:48:24;11.27;;;7.83;;
16662;SDS011;8445;51.270;9.434;2024-02-21T01:50:50;8.83;;;7.70;;
16662;SDS011;8445;51.270;9.434;2024-02-21T01:53:20;11.93;;;8.43;;
16662;SDS011;8445;51.270;9.434;2024-02-21T01:55:50;9.23;;;7.90;;
16662;SDS011;8445;51.270;9.434;2024-02-21T01:58:16;12.33;;;8.00;;
16662;SDS011;8445;51.270;9.434;2024-02-21T02:00:45;9.48;;;8.25;;
16662;SDS011;8445;51.270;9.434;2024-02-21T02:03:13;11.52;;;7.90;;
16662;SDS011;8445;51.270;9.434;2024-02-21T02:05:45;16.07;;;8.27;;
16662;SDS011;8445;51.270;9.434;2024-02-21T02:08:13;10.07;;;8.77;;
16662;SDS011;8445;51.270;9.434;2024-02-21T02:10:44;8.73;;;8.00;;
16662;SDS011;8445;51.270;9.434;2024-02-21T02:13:11;14.80;;;8.17;;
16662;SDS011;8445;51.270;9.434;2024-02-21T02:15:58;12.90;;;9.10;;
16662;SDS011;8445;51.270;9.434;2024-02-21T02:18:23;11.10;;;8.07;;
16662;SDS011;8445;51.270;9.434;2024-02-21T02:20:49;8.90;;;7.50;;
16662;SDS011;8445;51.270;9.434;2024-02-21T02:25:51;9.77;;;7.70;;
16662;SDS011;8445;51.270;9.434;2024-02-21T02:28:17;9.83;;;8.03;;
16662;SDS011;8445;51.270;9.434;2024-02-21T02:30:44;10.07;;;7.57;;
16662;SDS011;8445;51.270;9.434;2024-02-21T02:33:10;10.50;;;7.90;;
16662;SDS011;8445;51.270;9.434;2024-02-21T02:35:36;7.93;;;7.13;;
16662;SDS011;8445;51.270;9.434;2024-02-21T02:38:03;10.10;;;7.67;;
16662;SDS011;8445;51.270;9.434;2024-02-21T02:40:30;7.87;;;7.10;;
16662;SDS011;8445;51.270;9.434;2024-02-21T02:42:58;11.47;;;7.83;;
16662;SDS011;8445;51.270;9.434;2024-02-21T02:45:25;11.02;;;7.43;;
16662;SDS011;8445;51.270;9.434;2024-02-21T02:47:54;11.10;;;7.53;;
16662;SDS011;8445;51.270;9.434;2024-02-21T02:50:25;8.73;;;7.30;;
16662;SDS011;8445;51.270;9.434;2024-02-21T02:52:55;8.63;;;7.73;;
16662;SDS011;8445;51.270;9.434;2024-02-21T02:55:21;14.30;;;8.43;;
16662;SDS011;8445;51.270;9.434;2024-02-21T02:57:47;14.93;;;8.40;;
16662;SDS011;8445;51.270;9.434;2024-02-21T03:00:14;12.00;;;8.40;;
16662;SDS011;8445;51.270;9.434;2024-02-21T03:02:41;8.37;;;7.70;;
16662;SDS011;8445;51.270;9.434;2024-02-21T03:05:13;12.73;;;7.77;;
16662;SDS011;8445;51.270;9.434;2024-02-21T03:07:46;12.13;;;7.10;;
16662;SDS011;8445;51.270;9.434;2024-02-21T03:10:14;11.67;;;7.47;;
16662;SDS011;8445;51.270;9.434;2024-02-21T03:12:41;12.13;;;7.47;;
16662;SDS011;8445;51.270;9.434;2024-02-21T03:15:07;9.57;;;7.70;;
16662;SDS011;8445;51.270;9.434;2024-02-21T03:17:34;11.17;;;8.00;;
16662;SDS011;8445;51.270;9.434;2024-02-21T03:20:03;12.00;;;9.17;;
16662;SDS011;8445;51.270;9.434;2024-02-21T03:22:36;14.98;;;7.75;;
16662;SDS011;8445;51.270;9.434;2024-02-21T03:25:03;11.23;;;8.60;;
16662;SDS011;8445;51.270;9.434;2024-02-21T03:27:30;15.10;;;9.57;;
16662;SDS011;8445;51.270;9.434;2024-02-21T03:29:55;15.82;;;8.50;;
16662;SDS011;8445;51.270;9.434;2024-02-21T03:32:24;9.60;;;8.53;;
16662;SDS011;8445;51.270;9.434;2024-02-21T03:34:50;13.90;;;8.63;;
16662;SDS011;8445;51.270;9.434;2024-02-21T03:37:16;10.97;;;7.93;;
16662;SDS011;8445;51.270;9.434;2024-02-21T03:39:41;8.73;;;7.80;;
16662;SDS011;8445;51.270;9.434;2024-02-21T03:42:07;9.93;;;7.60;;
16662;SDS011;8445;51.270;9.434;2024-02-21T03:44:33;15.23;;;9.00;;
16662;SDS011;8445;51.270;9.434;2024-02-21T03:46:59;8.43;;;7.63;;
16662;SDS011;8445;51.270;9.434;2024-02-21T03:49:26;15.07;;;8.63;;
16662;SDS011;8445;51.270;9.434;2024-02-21T03:51:52;9.33;;;8.53;;
16662;SDS011;8445;51.270;9.434;2024-02-21T03:54:18;14.93;;;8.27;;
16662;SDS011;8445;51.270;9.434;2024-02-21T03:56:44;8.80;;;7.57;;
16662;SDS011;8445;51.270;9.434;2024-02-21T03:59:12;10.60;;;8.27;;
16662;SDS011;8445;51.270;9.434;2024-02-21T04:01:38;8.87;;;8.07;;
16662;SDS011;8445;51.270;9.434;2024-02-21T04:04:04;11.60;;;7.83;;
16662;SDS011;8445;51.270;9.434;2024-02-21T04:06:30;9.17;;;7.87;;
16662;SDS011;8445;51.270;9.434;2024-02-21T04:08:56;9.50;;;8.53;;
16662;SDS011;8445;51.270;9.434;2024-02-21T04:11:22;11.10;;;7.57;;
16662;SDS011;8445;51.270;9.434;2024-02-21T04:13:48;15.60;;;8.17;;
16662;SDS011;8445;51.270;9.434;2024-02-21T04:16:15;17.10;;;9.27;;
16662;SDS011;8445;51.270;9.434;2024-02-21T04:18:42;10.20;;;8.37;;
16662;SDS011;8445;51.270;9.434;2024-02-21T04:21:09;11.03;;;8.53;;
16662;SDS011;8445;51.270;9.434;2024-02-21T04:23:35;12.97;;;9.20;;
16662;SDS011;8445;51.270;9.434;2024-02-21T04:26:01;12.33;;;8.07;;
16662;SDS011;8445;51.270;9.434;2024-02-21T04:28:27;9.57;;;8.57;;
16662;SDS011;8445;51.270;9.434;2024-02-21T04:30:53;10.50;;;8.80;;
16662;SDS011;8445;51.270;9.434;2024-02-21T04:33:19;9.70;;;8.60;;
16662;SDS011;8445;51.270;9.434;2024-02-21T04:35:45;10.20;;;8.40;;
16662;SDS011;8445;51.270;9.434;2024-02-21T04:38:11;8.40;;;7.43;;
16662;SDS011;8445;51.270;9.434;2024-02-21T04:40:37;12.03;;;8.23;;
16662;SDS011;8445;51.270;9.434;2024-02-21T04:43:03;13.03;;;8.50;;
16662;SDS011;8445;51.270;9.434;2024-02-21T04:45:29;10.27;;;8.23;;
16662;SDS011;8445;51.270;9.434;2024-02-21T04:47:54;16.90;;;8.23;;
16662;SDS011;8445;51.270;9.434;2024-02-21T04:50:20;15.30;;;8.00;;
16662;SDS011;8445;51.270;9.434;2024-02-21T04:52:46;14.27;;;8.73;;
16662;SDS011;8445;51.270;9.434;2024-02-21T04:55:12;17.80;;;7.40;;
16662;SDS011;8445;51.270;9.434;2024-02-21T04:57:38;13.90;;;8.50;;
16662;SDS011;8445;51.270;9.434;2024-02-21T05:00:05;15.03;;;8.77;;
16662;SDS011;8445;51.270;9.434;2024-02-21T05:02:32;13.77;;;8.30;;
16662;SDS011;8445;51.270;9.434;2024-02-21T05:04:58;9.10;;;8.30;;
16662;SDS011;8445;51.270;9.434;2024-02-21T05:07:24;8.37;;;7.57;;
16662;SDS011;8445;51.270;9.434;2024-02-21T05:09:50;9.50;;;8.50;;
16662;SDS011;8445;51.270;9.434;2024-02-21T05:12:16;14.47;;;8.87;;
16662;SDS011;8445;51.270;9.434;2024-02-21T05:14:42;9.40;;;8.50;;
16662;SDS011;8445;51.270;9.434;2024-02-21T05:17:08;17.70;;;8.50;;
16662;SDS011;8445;51.270;9.434;2024-02-21T05:19:34;13.80;;;8.63;;
16662;SDS011;8445;51.270;9.434;2024-02-21T05:22:00;9.77;;;8.20;;
16662;SDS011;8445;51.270;9.434;2024-02-21T05:24:25;10.40;;;8.97;;
16662;SDS011;8445;51.270;9.434;2024-02-21T05:26:51;9.70;;;8.70;;
16662;SDS011;8445;51.270;9.434;2024-02-21T05:29:19;10.43;;;8.93;;
16662;SDS011;8445;51.270;9.434;2024-02-21T05:34:17;9.63;;;8.63;;
16662;SDS011;8445;51.270;9.434;2024-02-21T05:36:43;9.57;;;8.57;;
16662;SDS011;8445;51.270;9.434;2024-02-21T05:39:09;21.00;;;9.47;;
16662;SDS011;8445;51.270;9.434;2024-02-21T05:41:35;18.50;;;8.40;;
16662;SDS011;8445;51.270;9.434;2024-02-21T05:44:01;13.00;;;8.53;;
16662;SDS011;8445;51.270;9.434;2024-02-21T05:46:27;9.73;;;8.17;;
16662;SDS011;8445;51.270;9.434;2024-02-21T05:48:54;14.30;;;8.80;;
16662;SDS011;8445;51.270;9.434;2024-02-21T05:51:20;10.03;;;8.90;;
16662;SDS011;8445;51.270;9.434;2024-02-21T05:53:46;13.10;;;8.33;;
16662;SDS011;8445;51.270;9.434;2024-02-21T05:56:12;13.50;;;8.40;;
16662;SDS011;8445;51.270;9.434;2024-02-21T05:58:39;10.13;;;8.37;;
16662;SDS011;8445;51.270;9.434;2024-02-21T06:01:06;15.70;;;8.53;;
16662;SDS011;8445;51.270;9.434;2024-02-21T06:03:33;10.93;;;8.80;;
16662;SDS011;8445;51.270;9.434;2024-02-21T06:06:00;11.23;;;8.43;;
16662;SDS011;8445;51.270;9.434;2024-02-21T06:08:26;21.70;;;8.73;;
16662;SDS011;8445;51.270;9.434;2024-02-21T06:10:52;11.13;;;8.27;;
16662;SDS011;8445;51.270;9.434;2024-02-21T06:13:20;10.60;;;8.73;;
16662;SDS011;8445;51.270;9.434;2024-02-21T06:15:47;11.30;;;8.80;;
16662;SDS011;8445;51.270;9.434;2024-02-21T06:18:13;10.90;;;8.83;;
16662;SDS011;8445;51.270;9.434;2024-02-21T06:20:39;9.87;;;8.97;;
16662;SDS011;8445;51.270;9.434;2024-02-21T06:23:06;14.77;;;9.90;;
16662;SDS011;8445;51.270;9.434;2024-02-21T06:25:32;10.93;;;8.43;;
16662;SDS011;8445;51.270;9.434;2024-02-21T06:27:58;13.67;;;8.03;;
16662;SDS011;8445;51.270;9.434;2024-02-21T06:30:24;9.40;;;8.07;;
16662;SDS011;8445;51.270;9.434;2024-02-21T06:32:49;13.60;;;8.95;;
16662;SDS011;8445;51.270;9.434;2024-02-21T06:35:16;11.23;;;8.45;;
16662;SDS011;8445;51.270;9.434;2024-02-21T06:37:42;14.07;;;8.73;;
16662;SDS011;8445;51.270;9.434;2024-02-21T06:40:10;10.18;;;8.55;;
16662;SDS011;8445;51.270;9.434;2024-02-21T06:42:36;9.87;;;7.50;;
16662;SDS011;8445;51.270;9.434;2024-02-21T06:45:02;15.67;;;7.83;;
16662;SDS011;8445;51.270;9.434;2024-02-21T06:47:28;11.93;;;8.30;;
16662;SDS011;8445;51.270;9.434;2024-02-21T06:49:57;17.13;;;8.27;;
16662;SDS011;8445;51.270;9.434;2024-02-21T06:52:23;9.93;;;8.00;;
16662;SDS011;8445;51.270;9.434;2024-02-21T06:54:49;8.90;;;7.00;;
16662;SDS011;8445;51.270;9.434;2024-02-21T06:57:15;16.10;;;7.73;;
16662;SDS011;8445;51.270;9.434;2024-02-21T06:59:41;7.87;;;6.90;;
16662;SDS011;8445;51.270;9.434;2024-02-21T07:02:11;10.50;;;7.10;;
16662;SDS011;8445;51.270;9.434;2024-02-21T07:04:38;12.00;;;7.30;;
16662;SDS011;8445;51.270;9.434;2024-02-21T07:07:03;10.00;;;7.30;;
16662;SDS011;8445;51.270;9.434;2024-02-21T07:09:29;13.63;;;8.10;;
16662;SDS011;8445;51.270;9.434;2024-02-21T07:11:57;14.60;;;8.03;;
16662;SDS011;8445;51.270;9.434;2024-02-21T07:14:24;10.40;;;6.75;;
16662;SDS011;8445;51.270;9.434;2024-02-21T07:16:51;8.90;;;7.23;;
16662;SDS011;8445;51.270;9.434;2024-02-21T07:19:17;13.07;;;6.70;;
16662;SDS011;8445;51.270;9.434;2024-02-21T07:21:43;7.80;;;7.00;;
16662;SDS011;8445;51.270;9.434;2024-02-21T07:24:09;12.70;;;6.67;;
16662;SDS011;8445;51.270;9.434;2024-02-21T07:26:34;11.20;;;6.37;;
16662;SDS011;8445;51.270;9.434;2024-02-21T07:29:00;9.95;;;6.30;;
16662;SDS011;8445;51.270;9.434;2024-02-21T07:31:26;9.40;;;6.43;;
16662;SDS011;8445;51.270;9.434;2024-02-21T07:33:52;7.93;;;6.40;;
16662;SDS011;8445;51.270;9.434;2024-02-21T07:36:30;11.63;;;6.85;;
16662;SDS011;8445;51.270;9.434;2024-02-21T07:38:56;8.63;;;6.60;;
16662;SDS011;8445;51.270;9.434;2024-02-21T07:41:22;11.57;;;6.70;;
16662;SDS011;8445;51.270;9.434;2024-02-21T07:43:48;8.73;;;6.50;;
16662;SDS011;8445;51.270;9.434;2024-02-21T07:46:14;10.00;;;6.17;;
16662;SDS011;8445;51.270;9.434;2024-02-21T07:48:40;6.80;;;6.17;;
16662;SDS011;8445;51.270;9.434;2024-02-21T07:51:06;6.72;;;6.03;;
16662;SDS011;8445;51.270;9.434;2024-02-21T07:53:32;11.48;;;6.97;;
16662;SDS011;8445;51.270;9.434;2024-02-21T07:55:57;7.15;;;5.95;;
16662;SDS011;8445;51.270;9.434;2024-02-21T07:58:23;13.00;;;6.85;;
16662;SDS011;8445;51.270;9.434;2024-02-21T08:00:49;11.27;;;6.72;;
16662;SDS011;8445;51.270;9.434;2024-02-21T08:03:15;8.87;;;7.03;;
16662;SDS011;8445;51.270;9.434;2024-02-21T08:05:43;7.40;;;6.72;;
16662;SDS011;8445;51.270;9.434;2024-02-21T08:08:09;12.20;;;6.70;;
16662;SDS011;8445;51.270;9.434;2024-02-21T08:10:35;10.07;;;6.57;;
16662;SDS011;8445;51.270;9.434;2024-02-21T08:13:01;11.10;;;6.82;;
16662;SDS011;8445;51.270;9.434;2024-02-21T08:15:27;9.07;;;6.87;;
16662;SDS011;8445;51.270;9.434;2024-02-21T08:17:57;10.60;;;6.83;;
16662;SDS011;8445;51.270;9.434;2024-02-21T08:20:26;11.95;;;7.18;;
16662;SDS011;8445;51.270;9.434;2024-02-21T08:22:52;9.33;;;7.17;;
16662;SDS011;8445;51.270;9.434;2024-02-21T08:25:18;13.27;;;7.43;;
16662;SDS011;8445;51.270;9.434;2024-02-21T08:27:44;8.13;;;7.22;;
16662;SDS011;8445;51.270;9.434;2024-02-21T08:30:11;8.60;;;6.82;;
16662;SDS011;8445;51.270;9.434;2024-02-21T08:32:37;7.72;;;6.50;;
16662;SDS011;8445;51.270;9.434;2024-02-21T08:35:03;8.60;;;7.25;;
16662;SDS011;8445;51.270;9.434;2024-02-21T08:37:30;10.05;;;6.97;;
16662;SDS011;8445;51.270;9.434;2024-02-21T08:39:56;9.80;;;6.95;;
16662;SDS011;8445;51.270;9.434;2024-02-21T08:42:22;8.93;;;6.83;;
16662;SDS011;8445;51.270;9.434;2024-02-21T08:44:48;9.52;;;5.97;;
16662;SDS011;8445;51.270;9.434;2024-02-21T08:47:14;9.13;;;7.25;;
16662;SDS011;8445;51.270;9.434;2024-02-21T08:49:40;6.72;;;6.22;;
16662;SDS011;8445;51.270;9.434;2024-02-21T08:52:06;8.40;;;6.78;;
16662;SDS011;8445;51.270;9.434;2024-02-21T08:54:32;7.00;;;6.38;;
16662;SDS011;8445;51.270;9.434;2024-02-21T08:56:59;8.73;;;7.38;;
16662;SDS011;8445;51.270;9.434;2024-02-21T08:59:25;9.38;;;6.65;;
16662;SDS011;8445;51.270;9.434;2024-02-21T09:01:51;9.10;;;6.50;;
16662;SDS011;8445;51.270;9.434;2024-02-21T09:04:20;9.27;;;6.50;;
16662;SDS011;8445;51.270;9.434;2024-02-21T09:06:46;10.38;;;6.45;;
16662;SDS011;8445;51.270;9.434;2024-02-21T09:09:12;11.25;;;6.47;;
16662;SDS011;8445;51.270;9.434;2024-02-21T09:11:38;11.40;;;7.38;;
16662;SDS011;8445;51.270;9.434;2024-02-21T09:14:05;9.10;;;6.70;;
16662;SDS011;8445;51.270;9.434;2024-02-21T09:16:31;7.28;;;6.55;;
16662;SDS011;8445;51.270;9.434;2024-02-21T09:18:58;6.53;;;6.00;;
16662;SDS011;8445;51.270;9.434;2024-02-21T09:21:26;7.40;;;5.90;;
16662;SDS011;8445;51.270;9.434;2024-02-21T09:23:53;8.48;;;6.35;;
16662;SDS011;8445;51.270;9.434;2024-02-21T09:26:19;7.50;;;6.28;;
16662;SDS011;8445;51.270;9.434;2024-02-21T09:28:45;13.50;;;6.18;;
16662;SDS011;8445;51.270;9.434;2024-02-21T09:31:11;8.05;;;6.28;;
16662;SDS011;8445;51.270;9.434;2024-02-21T09:33:38;7.45;;;5.70;;
16662;SDS011;8445;51.270;9.434;2024-02-21T09:36:07;8.65;;;5.97;;
16662;SDS011;8445;51.270;9.434;2024-02-21T09:38:33;13.43;;;6.28;;
16662;SDS011;8445;51.270;9.434;2024-02-21T09:40:59;6.93;;;5.32;;
16662;SDS011;8445;51.270;9.434;2024-02-21T09:43:39;7.50;;;5.63;;
16662;SDS011;8445;51.270;9.434;2024-02-21T09:46:06;6.80;;;5.97;;
16662;SDS011;8445;51.270;9.434;2024-02-21T09:51:49;7.07;;;5.90;;
16662;SDS011;8445;51.270;9.434;2024-02-21T09:54:19;9.88;;;6.75;;
16662;SDS011;8445;51.270;9.434;2024-02-21T09:56:46;6.82;;;6.13;;
16662;SDS011;8445;51.270;9.434;2024-02-21T09:59:15;7.65;;;5.85;;
16662;SDS011;8445;51.270;9.434;2024-02-21T10:01:42;7.18;;;6.15;;
16662;SDS011;8445;51.270;9.434;2024-02-21T10:04:09;6.95;;;6.30;;
16662;SDS011;8445;51.270;9.434;2024-02-21T10:06:35;6.05;;;5.45;;
16662;SDS011;8445;51.270;9.434;2024-02-21T10:09:02;5.57;;;4.60;;
16662;SDS011;8445;51.270;9.434;2024-02-21T10:11:29;5.80;;;5.25;;
16662;SDS011;8445;51.270;9.434;2024-02-21T10:14:05;11.57;;;6.03;;
16662;SDS011;8445;51.270;9.434;2024-02-21T10:16:32;9.23;;;5.45;;
16662;SDS011;8445;51.270;9.434;2024-02-21T10:18:59;8.18;;;5.72;;
16662;SDS011;8445;51.270;9.434;2024-02-21T10:21:25;6.57;;;5.97;;
16662;SDS011;8445;51.270;9.434;2024-02-21T10:23:51;6.78;;;5.93;;
16662;SDS011;8445;51.270;9.434;2024-02-21T10:26:18;8.05;;;6.22;;
16662;SDS011;8445;51.270;9.434;2024-02-21T10:28:46;7.18;;;6.47;;
16662;SDS011;8445;51.270;9.434;2024-02-21T10:36:30;7.60;;;6.03;;
16662;SDS011;8445;51.270;9.434;2024-02-21T10:38:58;6.20;;;5.70;;
16662;SDS011;8445;51.270;9.434;2024-02-21T10:41:24;6.47;;;5.35;;
16662;SDS011;8445;51.270;9.434;2024-02-21T10:43:52;7.80;;;5.32;;
16662;SDS011;8445;51.270;9.434;2024-02-21T10:46:22;11.25;;;5.50;;
16662;SDS011;8445;51.270;9.434;2024-02-21T10:48:56;10.23;;;5.38;;
16662;SDS011;8445;51.270;9.434;2024-02-21T10:51:35;8.23;;;5.93;;
16662;SDS011;8445;51.270;9.434;2024-02-21T10:56:49;9.88;;;5.40;;
16662;SDS011;8445;51.270;9.434;2024-02-21T10:59:17;10.35;;;6.63;;
16662;SDS011;8445;51.270;9.434;2024-02-21T11:01:43;8.88;;;5.50;;
16662;SDS011;8445;51.270;9.434;2024-02-21T11:04:09;6.10;;;5.50;;
16662;SDS011;8445;51.270;9.434;2024-02-21T11:06:37;14.40;;;6.65;;
16662;SDS011;8445;51.270;9.434;2024-02-21T11:09:07;9.55;;;5.45;;
16662;SDS011;8445;51.270;9.434;2024-02-21T11:14:17;9.40;;;6.18;;
16662;SDS011;8445;51.270;9.434;2024-02-21T11:16:45;6.40;;;5.78;;
16662;SDS011;8445;51.270;9.434;2024-02-21T11:19:19;7.57;;;5.13;;
16662;SDS011;8445;51.270;9.434;2024-02-21T11:21:51;10.10;;;5.45;;
16662;SDS011;8445;51.270;9.434;2024-02-21T11:27:12;9.45;;;6.30;;
16662;SDS011;8445;51.270;9.434;2024-02-21T11:29:54;7.00;;;5.40;;
16662;SDS011;8445;51.270;9.434;2024-02-21T11:32:24;7.88;;;5.63;;
16662;SDS011;8445;51.270;9.434;2024-02-21T11:34:55;10.38;;;4.82;;
16662;SDS011;8445;51.270;9.434;2024-02-21T11:37:31;5.95;;;5.32;;
16662;SDS011;8445;51.270;9.434;2024-02-21T11:39:59;9.98;;;6.40;;
16662;SDS011;8445;51.270;9.434;2024-02-21T11:42:26;6.88;;;6.18;;
16662;SDS011;8445;51.270;9.434;2024-02-21T11:44:54;8.05;;;4.95;;
16662;SDS011;8445;51.270;9.434;2024-02-21T11:47:24;9.23;;;5.05;;
16662;SDS011;8445;51.270;9.434;2024-02-21T11:49:51;11.35;;;5.85;;
16662;SDS011;8445;51.270;9.434;2024-02-21T11:52:23;8.93;;;5.50;;
16662;SDS011;8445;51.270;9.434;2024-02-21T11:54:51;8.75;;;4.72;;
16662;SDS011;8445;51.270;9.434;2024-02-21T11:57:18;6.05;;;4.70;;
16662;SDS011;8445;51.270;9.434;2024-02-21T11:59:46;13.13;;;5.03;;
16662;SDS011;8445;51.270;9.434;2024-02-21T12:02:12;6.97;;;4.95;;
16662;SDS011;8445;51.270;9.434;2024-02-21T12:04:41;7.80;;;5.15;;
16662;SDS011;8445;51.270;9.434;2024-02-21T12:07:11;8.05;;;4.80;;
16662;SDS011;8445;51.270;9.434;2024-02-21T12:09:41;5.65;;;5.07;;
16662;SDS011;8445;51.270;9.434;2024-02-21T12:12:07;12.60;;;6.57;;
16662;SDS011;8445;51.270;9.434;2024-02-21T12:14:34;7.03;;;5.10;;
16662;SDS011;8445;51.270;9.434;2024-02-21T12:17:01;10.02;;;5.97;;
16662;SDS011;8445;51.270;9.434;2024-02-21T12:19:31;6.90;;;5.53;;
16662;SDS011;8445;51.270;9.434;2024-02-21T12:22:01;11.68;;;6.05;;
16662;SDS011;8445;51.270;9.434;2024-02-21T12:24:31;10.25;;;5.32;;
16662;SDS011;8445;51.270;9.434;2024-02-21T12:26:57;7.35;;;4.57;;
16662;SDS011;8445;51.270;9.434;2024-02-21T12:29:28;7.35;;;5.13;;
16662;SDS011;8445;51.270;9.434;2024-02-21T12:31:55;7.18;;;5.50;;
16662;SDS011;8445;51.270;9.434;2024-02-21T12:34:21;6.28;;;5.28;;
16662;SDS011;8445;51.270;9.434;2024-02-21T12:36:49;9.43;;;5.72;;
16662;SDS011;8445;51.270;9.434;2024-02-21T12:39:15;12.15;;;5.47;;
16662;SDS011;8445;51.270;9.434;2024-02-21T12:41:42;8.25;;;6.07;;
16662;SDS011;8445;51.270;9.434;2024-02-21T12:44:09;6.72;;;5.10;;
16662;SDS011;8445;51.270;9.434;2024-02-21T12:46:36;8.23;;;5.45;;
16662;SDS011;8445;51.270;9.434;2024-02-21T12:49:03;11.15;;;6.03;;
16662;SDS011;8445;51.270;9.434;2024-02-21T12:51:30;9.45;;;5.43;;
16662;SDS011;8445;51.270;9.434;2024-02-21T12:53:57;12.35;;;5.60;;
16662;SDS011;8445;51.270;9.434;2024-02-21T12:56:24;11.50;;;5.93;;
16662;SDS011;8445;51.270;9.434;2024-02-21T12:58:55;10.65;;;5.95;;
16662;SDS011;8445;51.270;9.434;2024-02-21T13:01:20;9.63;;;6.00;;
16662;SDS011;8445;51.270;9.434;2024-02-21T13:03:47;10.43;;;6.30;;
16662;SDS011;8445;51.270;9.434;2024-02-21T13:06:13;13.65;;;6.05;;
16662;SDS011;8445;51.270;9.434;2024-02-21T13:08:39;10.30;;;5.85;;
16662;SDS011;8445;51.270;9.434;2024-02-21T13:11:06;14.13;;;6.40;;
16662;SDS011;8445;51.270;9.434;2024-02-21T13:13:32;9.93;;;5.88;;
16662;SDS011;8445;51.270;9.434;2024-02-21T13:15:58;8.13;;;5.65;;
16662;SDS011;8445;51.270;9.434;2024-02-21T13:18:25;13.40;;;6.22;;
16662;SDS011;8445;51.270;9.434;2024-02-21T13:20:51;9.40;;;5.68;;
16662;SDS011;8445;51.270;9.434;2024-02-21T13:23:17;8.63;;;5.95;;
16662;SDS011;8445;51.270;9.434;2024-02-21T13:25:43;8.88;;;6.22;;
16662;SDS011;8445;51.270;9.434;2024-02-21T13:28:12;9.50;;;6.43;;
16662;SDS011;8445;51.270;9.434;2024-02-21T13:30:39;11.15;;;6.18;;
16662;SDS011;8445;51.270;9.434;2024-02-21T13:33:06;5.97;;;5.40;;
16662;SDS011;8445;51.270;9.434;2024-02-21T13:35:33;6.47;;;5.68;;
16662;SDS011;8445;51.270;9.434;2024-02-21T13:38:00;8.20;;;5.47;;
16662;SDS011;8445;51.270;9.434;2024-02-21T13:40:26;10.13;;;6.13;;
16662;SDS011;8445;51.270;9.434;2024-02-21T13:42:52;11.15;;;6.35;;
16662;SDS011;8445;51.270;9.434;2024-02-21T13:45:19;9.50;;;6.00;;
16662;SDS011;8445;51.270;9.434;2024-02-21T13:47:45;7.57;;;6.10;;
16662;SDS011;8445;51.270;9.434;2024-02-21T13:50:11;12.88;;;6.55;;
16662;SDS011;8445;51.270;9.434;2024-02-21T13:52:39;19.75;;;7.43;;
16662;SDS011;8445;51.270;9.434;2024-02-21T13:55:07;9.27;;;6.03;;
16662;SDS011;8445;51.270;9.434;2024-02-21T13:57:36;10.85;;;6.85;;
16662;SDS011;8445;51.270;9.434;2024-02-21T14:00:07;8.65;;;6.68;;
16662;SDS011;8445;51.270;9.434;2024-02-21T14:02:39;14.25;;;7.93;;
16662;SDS011;8445;51.270;9.434;2024-02-21T14:05:05;7.93;;;6.80;;
16662;SDS011;8445;51.270;9.434;2024-02-21T14:07:32;10.70;;;7.45;;
16662;SDS011;8445;51.270;9.434;2024-02-21T14:09:58;15.05;;;7.93;;
16662;SDS011;8445;51.270;9.434;2024-02-21T14:12:25;11.43;;;7.70;;
16662;SDS011;8445;51.270;9.434;2024-02-21T14:14:53;13.98;;;8.75;;
16662;SDS011;8445;51.270;9.434;2024-02-21T14:17:23;12.45;;;7.80;;
16662;SDS011;8445;51.270;9.434;2024-02-21T14:19:50;10.45;;;7.88;;
16662;SDS011;8445;51.270;9.434;2024-02-21T14:22:17;11.25;;;7.68;;
16662;SDS011;8445;51.270;9.434;2024-02-21T14:24:43;10.32;;;7.80;;
16662;SDS011;8445;51.270;9.434;2024-02-21T14:27:11;15.48;;;7.82;;
16662;SDS011;8445;51.270;9.434;2024-02-21T14:29:38;13.32;;;8.65;;
16662;SDS011;8445;51.270;9.434;2024-02-21T14:32:04;17.50;;;9.80;;
16662;SDS011;8445;51.270;9.434;2024-02-21T14:34:31;15.45;;;7.90;;
16662;SDS011;8445;51.270;9.434;2024-02-21T14:36:57;14.02;;;8.23;;
16662;SDS011;8445;51.270;9.434;2024-02-21T14:39:25;18.98;;;8.35;;
16662;SDS011;8445;51.270;9.434;2024-02-21T14:41:53;12.40;;;8.10;;
16662;SDS011;8445;51.270;9.434;2024-02-21T14:44:20;10.65;;;6.97;;
16662;SDS011;8445;51.270;9.434;2024-02-21T14:46:48;17.42;;;7.75;;
16662;SDS011;8445;51.270;9.434;2024-02-21T14:49:16;7.97;;;6.95;;
16662;SDS011;8445;51.270;9.434;2024-02-21T14:51:44;10.10;;;7.75;;
16662;SDS011;8445;51.270;9.434;2024-02-21T14:54:10;17.42;;;7.60;;
16662;SDS011;8445;51.270;9.434;2024-02-21T14:56:38;9.77;;;7.53;;
16662;SDS011;8445;51.270;9.434;2024-02-21T14:59:12;10.20;;;7.25;;
16662;SDS011;8445;51.270;9.434;2024-02-21T15:02:03;10.68;;;6.57;;
16662;SDS011;8445;51.270;9.434;2024-02-21T15:04:29;15.93;;;7.72;;
16662;SDS011;8445;51.270;9.434;2024-02-21T15:06:57;12.00;;;7.50;;
16662;SDS011;8445;51.270;9.434;2024-02-21T15:09:24;8.45;;;6.18;;
16662;SDS011;8445;51.270;9.434;2024-02-21T15:12:00;12.48;;;7.07;;
16662;SDS011;8445;51.270;9.434;2024-02-21T15:14:33;13.20;;;7.43;;